sensor_id;sensor_type;location;lat;lon;timestamp;P1;durP1;ratioP1;P2;durP2;ratioP2
25249;SDS011;13201;51.148;13.738;2023-05-07T00:02:21;17.30;;;9.27;;
25249;SDS011;13201;51.148;13.738;2023-05-07T00:04:47;18.93;;;9.30;;
25249;SDS011;13201;51.148;13.738;2023-05-07T00:07:14;17.73;;;9.43;;
25249;SDS011;13201;51.148;13.738;2023-05-07T00:09:40;16.23;;;9.53;;
25249;SDS011;13201;51.148;13.738;2023-05-07T00:12:05;18.52;;;10.23;;
25249;SDS011;13201;51.148;13.738;2023-05-07T00:14:32;24.05;;;9.90;;
25249;SDS011;13201;51.148;13.738;2023-05-07T00:16:57;16.17;;;10.50;;
25249;SDS011;13201;51.148;13.738;2023-05-07T00:19:23;17.95;;;9.93;;
25249;SDS011;13201;51.148;13.738;2023-05-07T00:21:49;15.23;;;9.63;;
25249;SDS011;13201;51.148;13.738;2023-05-07T00:24:15;16.92;;;9.80;;
25249;SDS011;13201;51.148;13.738;2023-05-07T00:26:40;17.08;;;9.63;;
25249;SDS011;13201;51.148;13.738;2023-05-07T00:29:06;20.50;;;11.02;;
25249;SDS011;13201;51.148;13.738;2023-05-07T00:31:32;17.95;;;10.00;;
25249;SDS011;13201;51.148;13.738;2023-05-07T00:33:58;17.80;;;10.50;;
25249;SDS011;13201;51.148;13.738;2023-05-07T00:36:23;18.02;;;10.35;;
25249;SDS011;13201;51.148;13.738;2023-05-07T00:38:49;17.20;;;10.10;;
25249;SDS011;13201;51.148;13.738;2023-05-07T00:41:15;17.00;;;10.63;;
25249;SDS011;13201;51.148;13.738;2023-05-07T00:43:40;18.63;;;10.73;;
25249;SDS011;13201;51.148;13.738;2023-05-07T00:46:06;17.80;;;10.07;;
25249;SDS011;13201;51.148;13.738;2023-05-07T00:48:32;15.65;;;9.68;;
25249;SDS011;13201;51.148;13.738;2023-05-07T00:50:57;15.60;;;9.75;;
25249;SDS011;13201;51.148;13.738;2023-05-07T00:53:23;18.33;;;9.85;;
25249;SDS011;13201;51.148;13.738;2023-05-07T00:55:49;18.57;;;10.40;;
25249;SDS011;13201;51.148;13.738;2023-05-07T00:58:16;15.80;;;9.50;;
25249;SDS011;13201;51.148;13.738;2023-05-07T01:00:42;21.10;;;9.87;;
25249;SDS011;13201;51.148;13.738;2023-05-07T01:03:07;17.45;;;9.63;;
25249;SDS011;13201;51.148;13.738;2023-05-07T01:30:24;17.80;;;10.13;;
25249;SDS011;13201;51.148;13.738;2023-05-07T01:33:09;15.82;;;9.55;;
25249;SDS011;13201;51.148;13.738;2023-05-07T01:35:41;16.35;;;10.18;;
25249;SDS011;13201;51.148;13.738;2023-05-07T01:38:11;20.33;;;9.88;;
25249;SDS011;13201;51.148;13.738;2023-05-07T01:40:38;16.42;;;9.43;;
25249;SDS011;13201;51.148;13.738;2023-05-07T01:43:04;16.48;;;9.40;;
25249;SDS011;13201;51.148;13.738;2023-05-07T01:45:30;17.30;;;9.60;;
25249;SDS011;13201;51.148;13.738;2023-05-07T01:47:57;15.48;;;9.27;;
25249;SDS011;13201;51.148;13.738;2023-05-07T01:50:23;18.77;;;9.70;;
25249;SDS011;13201;51.148;13.738;2023-05-07T01:55:17;13.77;;;9.37;;
25249;SDS011;13201;51.148;13.738;2023-05-07T01:57:42;16.40;;;9.13;;
25249;SDS011;13201;51.148;13.738;2023-05-07T02:00:08;19.95;;;10.38;;
25249;SDS011;13201;51.148;13.738;2023-05-07T02:02:34;13.90;;;8.97;;
25249;SDS011;13201;51.148;13.738;2023-05-07T02:05:00;16.98;;;9.65;;
25249;SDS011;13201;51.148;13.738;2023-05-07T02:07:26;17.73;;;9.88;;
25249;SDS011;13201;51.148;13.738;2023-05-07T02:09:52;15.30;;;9.27;;
25249;SDS011;13201;51.148;13.738;2023-05-07T02:12:20;16.52;;;9.23;;
25249;SDS011;13201;51.148;13.738;2023-05-07T02:14:46;15.67;;;9.33;;
25249;SDS011;13201;51.148;13.738;2023-05-07T02:17:12;16.35;;;9.38;;
25249;SDS011;13201;51.148;13.738;2023-05-07T02:19:37;14.15;;;8.63;;
25249;SDS011;13201;51.148;13.738;2023-05-07T02:22:03;17.98;;;9.43;;
25249;SDS011;13201;51.148;13.738;2023-05-07T02:24:29;16.23;;;9.10;;
25249;SDS011;13201;51.148;13.738;2023-05-07T02:26:55;16.90;;;9.07;;
25249;SDS011;13201;51.148;13.738;2023-05-07T02:29:20;18.08;;;8.77;;
25249;SDS011;13201;51.148;13.738;2023-05-07T02:31:46;12.98;;;8.52;;
25249;SDS011;13201;51.148;13.738;2023-05-07T02:34:15;14.23;;;8.23;;
25249;SDS011;13201;51.148;13.738;2023-05-07T02:36:41;12.53;;;7.67;;
25249;SDS011;13201;51.148;13.738;2023-05-07T02:39:07;13.25;;;7.45;;
25249;SDS011;13201;51.148;13.738;2023-05-07T02:41:33;12.95;;;8.00;;
25249;SDS011;13201;51.148;13.738;2023-05-07T02:43:59;13.57;;;8.15;;
25249;SDS011;13201;51.148;13.738;2023-05-07T02:46:25;10.98;;;7.60;;
25249;SDS011;13201;51.148;13.738;2023-05-07T02:48:50;12.70;;;8.18;;
25249;SDS011;13201;51.148;13.738;2023-05-07T02:51:20;11.85;;;7.43;;
25249;SDS011;13201;51.148;13.738;2023-05-07T02:53:46;13.55;;;7.85;;
25249;SDS011;13201;51.148;13.738;2023-05-07T02:56:12;15.82;;;8.82;;
25249;SDS011;13201;51.148;13.738;2023-05-07T02:58:38;14.43;;;8.63;;
25249;SDS011;13201;51.148;13.738;2023-05-07T03:01:07;17.98;;;9.32;;
25249;SDS011;13201;51.148;13.738;2023-05-07T03:03:33;17.25;;;8.65;;
25249;SDS011;13201;51.148;13.738;2023-05-07T03:05:59;15.33;;;7.27;;
25249;SDS011;13201;51.148;13.738;2023-05-07T03:08:25;14.07;;;8.18;;
25249;SDS011;13201;51.148;13.738;2023-05-07T03:10:51;13.82;;;8.32;;
25249;SDS011;13201;51.148;13.738;2023-05-07T03:13:17;15.60;;;9.10;;
25249;SDS011;13201;51.148;13.738;2023-05-07T03:15:43;15.90;;;9.02;;
25249;SDS011;13201;51.148;13.738;2023-05-07T03:18:08;15.63;;;8.75;;
25249;SDS011;13201;51.148;13.738;2023-05-07T03:20:35;16.42;;;8.30;;
25249;SDS011;13201;51.148;13.738;2023-05-07T03:23:01;16.42;;;8.40;;
25249;SDS011;13201;51.148;13.738;2023-05-07T03:25:27;15.38;;;8.85;;
25249;SDS011;13201;51.148;13.738;2023-05-07T03:27:54;15.93;;;9.07;;
25249;SDS011;13201;51.148;13.738;2023-05-07T03:30:21;19.67;;;9.37;;
25249;SDS011;13201;51.148;13.738;2023-05-07T03:32:47;16.35;;;9.02;;
25249;SDS011;13201;51.148;13.738;2023-05-07T03:35:12;15.18;;;8.95;;
25249;SDS011;13201;51.148;13.738;2023-05-07T03:37:39;17.48;;;9.32;;
25249;SDS011;13201;51.148;13.738;2023-05-07T03:40:05;18.52;;;9.35;;
25249;SDS011;13201;51.148;13.738;2023-05-07T03:42:31;18.25;;;9.10;;
25249;SDS011;13201;51.148;13.738;2023-05-07T03:44:57;19.10;;;9.82;;
25249;SDS011;13201;51.148;13.738;2023-05-07T03:47:23;15.23;;;9.25;;
25249;SDS011;13201;51.148;13.738;2023-05-07T03:49:48;16.38;;;9.48;;
25249;SDS011;13201;51.148;13.738;2023-05-07T03:52:15;15.73;;;8.98;;
25249;SDS011;13201;51.148;13.738;2023-05-07T03:54:41;15.30;;;8.93;;
25249;SDS011;13201;51.148;13.738;2023-05-07T03:57:06;14.85;;;9.15;;
25249;SDS011;13201;51.148;13.738;2023-05-07T03:59:32;14.07;;;8.70;;
25249;SDS011;13201;51.148;13.738;2023-05-07T04:01:58;15.50;;;8.93;;
25249;SDS011;13201;51.148;13.738;2023-05-07T04:04:23;14.90;;;8.90;;
25249;SDS011;13201;51.148;13.738;2023-05-07T04:06:49;17.63;;;9.25;;
25249;SDS011;13201;51.148;13.738;2023-05-07T04:09:15;17.52;;;8.93;;
25249;SDS011;13201;51.148;13.738;2023-05-07T04:11:41;16.38;;;8.95;;
25249;SDS011;13201;51.148;13.738;2023-05-07T04:14:07;19.65;;;9.70;;
25249;SDS011;13201;51.148;13.738;2023-05-07T04:16:34;17.30;;;9.77;;
25249;SDS011;13201;51.148;13.738;2023-05-07T04:21:25;16.30;;;8.97;;
25249;SDS011;13201;51.148;13.738;2023-05-07T04:23:51;18.00;;;9.03;;
25249;SDS011;13201;51.148;13.738;2023-05-07T04:26:17;18.33;;;9.52;;
25249;SDS011;13201;51.148;13.738;2023-05-07T04:28:43;19.42;;;9.38;;
25249;SDS011;13201;51.148;13.738;2023-05-07T04:31:08;19.35;;;9.70;;
25249;SDS011;13201;51.148;13.738;2023-05-07T04:33:34;15.88;;;9.00;;
25249;SDS011;13201;51.148;13.738;2023-05-07T04:36:03;15.18;;;8.73;;
25249;SDS011;13201;51.148;13.738;2023-05-07T04:38:29;18.60;;;8.73;;
25249;SDS011;13201;51.148;13.738;2023-05-07T04:40:56;14.93;;;8.43;;
25249;SDS011;13201;51.148;13.738;2023-05-07T04:45:52;15.40;;;7.70;;
25249;SDS011;13201;51.148;13.738;2023-05-07T04:48:17;12.13;;;7.30;;
25249;SDS011;13201;51.148;13.738;2023-05-07T04:50:48;13.82;;;7.47;;
25249;SDS011;13201;51.148;13.738;2023-05-07T04:53:15;16.88;;;8.02;;
25249;SDS011;13201;51.148;13.738;2023-05-07T04:55:41;13.82;;;7.95;;
25249;SDS011;13201;51.148;13.738;2023-05-07T04:58:07;14.13;;;7.80;;
25249;SDS011;13201;51.148;13.738;2023-05-07T05:00:33;12.77;;;7.70;;
25249;SDS011;13201;51.148;13.738;2023-05-07T05:02:59;15.30;;;8.35;;
25249;SDS011;13201;51.148;13.738;2023-05-07T05:05:24;14.02;;;8.40;;
25249;SDS011;13201;51.148;13.738;2023-05-07T05:07:50;15.63;;;8.48;;
25249;SDS011;13201;51.148;13.738;2023-05-07T05:10:16;17.30;;;8.80;;
25249;SDS011;13201;51.148;13.738;2023-05-07T05:12:42;13.98;;;8.55;;
25249;SDS011;13201;51.148;13.738;2023-05-07T05:15:08;15.43;;;9.05;;
25249;SDS011;13201;51.148;13.738;2023-05-07T05:17:36;14.65;;;8.00;;
25249;SDS011;13201;51.148;13.738;2023-05-07T05:20:02;14.20;;;7.90;;
25249;SDS011;13201;51.148;13.738;2023-05-07T05:22:28;13.23;;;7.72;;
25249;SDS011;13201;51.148;13.738;2023-05-07T05:24:56;16.83;;;7.70;;
25249;SDS011;13201;51.148;13.738;2023-05-07T05:27:22;12.20;;;7.23;;
25249;SDS011;13201;51.148;13.738;2023-05-07T05:29:47;13.23;;;6.95;;
25249;SDS011;13201;51.148;13.738;2023-05-07T05:32:13;11.68;;;6.68;;
25249;SDS011;13201;51.148;13.738;2023-05-07T05:34:39;12.68;;;6.57;;
25249;SDS011;13201;51.148;13.738;2023-05-07T05:37:05;11.90;;;6.63;;
25249;SDS011;13201;51.148;13.738;2023-05-07T05:39:30;10.98;;;6.88;;
25249;SDS011;13201;51.148;13.738;2023-05-07T05:41:56;12.00;;;6.60;;
25249;SDS011;13201;51.148;13.738;2023-05-07T05:44:22;11.57;;;7.05;;
25249;SDS011;13201;51.148;13.738;2023-05-07T05:46:47;10.50;;;6.35;;
25249;SDS011;13201;51.148;13.738;2023-05-07T05:51:40;11.37;;;6.80;;
25249;SDS011;13201;51.148;13.738;2023-05-07T05:54:06;13.52;;;6.68;;
25249;SDS011;13201;51.148;13.738;2023-05-07T05:56:31;12.63;;;7.07;;
25249;SDS011;13201;51.148;13.738;2023-05-07T05:58:57;11.98;;;6.50;;
25249;SDS011;13201;51.148;13.738;2023-05-07T06:01:23;11.52;;;6.70;;
25249;SDS011;13201;51.148;13.738;2023-05-07T06:03:49;8.93;;;5.68;;
25249;SDS011;13201;51.148;13.738;2023-05-07T06:06:15;9.80;;;6.30;;
25249;SDS011;13201;51.148;13.738;2023-05-07T06:08:40;14.77;;;8.20;;
25249;SDS011;13201;51.148;13.738;2023-05-07T06:11:06;11.80;;;6.32;;
25249;SDS011;13201;51.148;13.738;2023-05-07T06:13:32;8.70;;;5.57;;
25249;SDS011;13201;51.148;13.738;2023-05-07T06:15:58;8.02;;;5.15;;
25249;SDS011;13201;51.148;13.738;2023-05-07T06:18:23;8.52;;;5.47;;
25249;SDS011;13201;51.148;13.738;2023-05-07T06:20:50;9.50;;;5.30;;
25249;SDS011;13201;51.148;13.738;2023-05-07T06:23:16;9.00;;;5.60;;
25249;SDS011;13201;51.148;13.738;2023-05-07T06:25:45;9.52;;;5.63;;
25249;SDS011;13201;51.148;13.738;2023-05-07T06:28:13;10.68;;;5.40;;
25249;SDS011;13201;51.148;13.738;2023-05-07T06:30:39;8.68;;;5.07;;
25249;SDS011;13201;51.148;13.738;2023-05-07T06:33:05;7.93;;;5.50;;
25249;SDS011;13201;51.148;13.738;2023-05-07T06:35:31;8.27;;;5.18;;
25249;SDS011;13201;51.148;13.738;2023-05-07T06:37:56;9.75;;;5.47;;
25249;SDS011;13201;51.148;13.738;2023-05-07T06:40:22;12.02;;;7.20;;
25249;SDS011;13201;51.148;13.738;2023-05-07T06:42:48;9.23;;;5.68;;
25249;SDS011;13201;51.148;13.738;2023-05-07T06:45:13;9.80;;;5.72;;
25249;SDS011;13201;51.148;13.738;2023-05-07T06:47:39;8.45;;;5.45;;
25249;SDS011;13201;51.148;13.738;2023-05-07T06:50:05;11.02;;;5.13;;
25249;SDS011;13201;51.148;13.738;2023-05-07T06:52:31;9.52;;;5.85;;
25249;SDS011;13201;51.148;13.738;2023-05-07T06:54:57;9.90;;;5.47;;
25249;SDS011;13201;51.148;13.738;2023-05-07T06:57:23;9.48;;;5.90;;
25249;SDS011;13201;51.148;13.738;2023-05-07T06:59:49;8.67;;;5.77;;
25249;SDS011;13201;51.148;13.738;2023-05-07T07:02:14;8.68;;;5.28;;
25249;SDS011;13201;51.148;13.738;2023-05-07T07:04:40;8.02;;;4.60;;
25249;SDS011;13201;51.148;13.738;2023-05-07T07:07:06;5.80;;;4.00;;
25249;SDS011;13201;51.148;13.738;2023-05-07T07:09:32;8.68;;;5.38;;
25249;SDS011;13201;51.148;13.738;2023-05-07T07:11:58;19.00;;;8.13;;
25249;SDS011;13201;51.148;13.738;2023-05-07T07:14:24;29.50;;;13.60;;
25249;SDS011;13201;51.148;13.738;2023-05-07T07:16:50;5.47;;;3.72;;
25249;SDS011;13201;51.148;13.738;2023-05-07T07:19:16;4.72;;;3.20;;
25249;SDS011;13201;51.148;13.738;2023-05-07T07:21:42;4.72;;;3.28;;
25249;SDS011;13201;51.148;13.738;2023-05-07T07:24:07;4.30;;;3.15;;
25249;SDS011;13201;51.148;13.738;2023-05-07T07:26:33;4.82;;;2.95;;
25249;SDS011;13201;51.148;13.738;2023-05-07T07:28:59;7.75;;;4.30;;
25249;SDS011;13201;51.148;13.738;2023-05-07T07:31:24;6.32;;;3.63;;
25249;SDS011;13201;51.148;13.738;2023-05-07T07:33:50;4.05;;;2.88;;
25249;SDS011;13201;51.148;13.738;2023-05-07T07:36:16;4.30;;;2.72;;
25249;SDS011;13201;51.148;13.738;2023-05-07T07:38:41;4.32;;;2.88;;
25249;SDS011;13201;51.148;13.738;2023-05-07T07:41:10;3.70;;;2.83;;
25249;SDS011;13201;51.148;13.738;2023-05-07T07:43:36;4.15;;;3.25;;
25249;SDS011;13201;51.148;13.738;2023-05-07T07:46:01;3.53;;;2.53;;
25249;SDS011;13201;51.148;13.738;2023-05-07T07:48:27;2.92;;;2.50;;
25249;SDS011;13201;51.148;13.738;2023-05-07T07:50:53;4.28;;;2.72;;
25249;SDS011;13201;51.148;13.738;2023-05-07T07:53:19;4.00;;;3.00;;
25249;SDS011;13201;51.148;13.738;2023-05-07T07:55:45;3.27;;;2.67;;
25249;SDS011;13201;51.148;13.738;2023-05-07T07:58:10;4.85;;;3.40;;
25249;SDS011;13201;51.148;13.738;2023-05-07T08:00:36;4.55;;;3.05;;
25249;SDS011;13201;51.148;13.738;2023-05-07T08:03:02;3.30;;;2.60;;
25249;SDS011;13201;51.148;13.738;2023-05-07T08:05:28;5.68;;;2.90;;
25249;SDS011;13201;51.148;13.738;2023-05-07T08:07:54;5.82;;;3.22;;
25249;SDS011;13201;51.148;13.738;2023-05-07T08:10:21;4.30;;;2.97;;
25249;SDS011;13201;51.148;13.738;2023-05-07T08:12:50;4.55;;;3.10;;
25249;SDS011;13201;51.148;13.738;2023-05-07T08:15:16;4.20;;;2.88;;
25249;SDS011;13201;51.148;13.738;2023-05-07T08:17:42;5.45;;;3.47;;
25249;SDS011;13201;51.148;13.738;2023-05-07T08:20:08;4.50;;;3.13;;
25249;SDS011;13201;51.148;13.738;2023-05-07T08:22:35;4.30;;;3.30;;
25249;SDS011;13201;51.148;13.738;2023-05-07T08:25:01;5.13;;;3.45;;
25249;SDS011;13201;51.148;13.738;2023-05-07T08:27:27;4.18;;;3.20;;
25249;SDS011;13201;51.148;13.738;2023-05-07T08:29:53;4.35;;;3.22;;
25249;SDS011;13201;51.148;13.738;2023-05-07T08:32:19;4.90;;;3.45;;
25249;SDS011;13201;51.148;13.738;2023-05-07T08:34:45;5.03;;;3.47;;
25249;SDS011;13201;51.148;13.738;2023-05-07T08:37:11;7.53;;;4.55;;
25249;SDS011;13201;51.148;13.738;2023-05-07T08:39:37;5.78;;;4.10;;
25249;SDS011;13201;51.148;13.738;2023-05-07T08:42:03;6.47;;;4.50;;
25249;SDS011;13201;51.148;13.738;2023-05-07T08:44:33;8.00;;;4.93;;
25249;SDS011;13201;51.148;13.738;2023-05-07T08:47:00;7.47;;;4.72;;
25249;SDS011;13201;51.148;13.738;2023-05-07T08:49:27;11.00;;;6.10;;
25249;SDS011;13201;51.148;13.738;2023-05-07T08:51:53;20.10;;;12.07;;
25249;SDS011;13201;51.148;13.738;2023-05-07T08:54:20;7.55;;;5.32;;
25249;SDS011;13201;51.148;13.738;2023-05-07T08:56:46;7.73;;;4.90;;
25249;SDS011;13201;51.148;13.738;2023-05-07T08:59:12;7.63;;;5.13;;
25249;SDS011;13201;51.148;13.738;2023-05-07T09:01:38;8.77;;;5.55;;
25249;SDS011;13201;51.148;13.738;2023-05-07T09:04:04;7.20;;;5.20;;
25249;SDS011;13201;51.148;13.738;2023-05-07T09:06:31;8.80;;;5.57;;
25249;SDS011;13201;51.148;13.738;2023-05-07T09:08:58;9.07;;;4.93;;
25249;SDS011;13201;51.148;13.738;2023-05-07T09:11:26;7.82;;;4.75;;
25249;SDS011;13201;51.148;13.738;2023-05-07T09:13:55;9.07;;;5.50;;
25249;SDS011;13201;51.148;13.738;2023-05-07T09:16:23;8.35;;;5.22;;
25249;SDS011;13201;51.148;13.738;2023-05-07T09:18:53;7.53;;;4.65;;
25249;SDS011;13201;51.148;13.738;2023-05-07T09:21:20;8.80;;;4.82;;
25249;SDS011;13201;51.148;13.738;2023-05-07T09:23:48;7.20;;;4.63;;
25249;SDS011;13201;51.148;13.738;2023-05-07T09:26:16;8.02;;;4.95;;
25249;SDS011;13201;51.148;13.738;2023-05-07T09:28:42;11.02;;;5.60;;
25249;SDS011;13201;51.148;13.738;2023-05-07T09:31:08;7.20;;;4.80;;
25249;SDS011;13201;51.148;13.738;2023-05-07T09:33:34;7.78;;;4.55;;
25249;SDS011;13201;51.148;13.738;2023-05-07T09:36:04;7.20;;;4.50;;
25249;SDS011;13201;51.148;13.738;2023-05-07T09:38:31;6.53;;;4.32;;
25249;SDS011;13201;51.148;13.738;2023-05-07T09:43:34;7.50;;;4.80;;
25249;SDS011;13201;51.148;13.738;2023-05-07T09:46:06;6.55;;;4.50;;
25249;SDS011;13201;51.148;13.738;2023-05-07T09:48:42;7.45;;;4.80;;
25249;SDS011;13201;51.148;13.738;2023-05-07T09:53:47;6.95;;;5.05;;
25249;SDS011;13201;51.148;13.738;2023-05-07T09:56:15;6.90;;;4.57;;
25249;SDS011;13201;51.148;13.738;2023-05-07T09:58:43;6.45;;;4.85;;
25249;SDS011;13201;51.148;13.738;2023-05-07T10:01:10;9.38;;;5.18;;
25249;SDS011;13201;51.148;13.738;2023-05-07T10:03:37;7.60;;;4.68;;
25249;SDS011;13201;51.148;13.738;2023-05-07T10:06:09;6.35;;;4.72;;
25249;SDS011;13201;51.148;13.738;2023-05-07T10:08:36;10.80;;;4.70;;
25249;SDS011;13201;51.148;13.738;2023-05-07T10:11:02;8.70;;;5.50;;
25249;SDS011;13201;51.148;13.738;2023-05-07T10:13:29;7.03;;;5.10;;
25249;SDS011;13201;51.148;13.738;2023-05-07T10:15:56;7.93;;;5.20;;
25249;SDS011;13201;51.148;13.738;2023-05-07T10:18:22;7.80;;;5.00;;
25249;SDS011;13201;51.148;13.738;2023-05-07T10:20:54;8.98;;;5.45;;
25249;SDS011;13201;51.148;13.738;2023-05-07T10:23:25;8.00;;;4.95;;
25249;SDS011;13201;51.148;13.738;2023-05-07T10:25:52;15.65;;;9.43;;
25249;SDS011;13201;51.148;13.738;2023-05-07T10:28:19;9.27;;;5.50;;
25249;SDS011;13201;51.148;13.738;2023-05-07T10:33:37;7.30;;;5.32;;
25249;SDS011;13201;51.148;13.738;2023-05-07T10:36:04;7.78;;;5.25;;
25249;SDS011;13201;51.148;13.738;2023-05-07T10:40:57;7.50;;;4.97;;
25249;SDS011;13201;51.148;13.738;2023-05-07T10:43:23;9.20;;;5.05;;
25249;SDS011;13201;51.148;13.738;2023-05-07T10:46:08;7.18;;;5.13;;
25249;SDS011;13201;51.148;13.738;2023-05-07T10:51:28;6.93;;;4.53;;
25249;SDS011;13201;51.148;13.738;2023-05-07T10:56:42;7.03;;;5.45;;
25249;SDS011;13201;51.148;13.738;2023-05-07T11:01:55;6.88;;;4.68;;
25249;SDS011;13201;51.148;13.738;2023-05-07T11:04:22;6.95;;;4.70;;
25249;SDS011;13201;51.148;13.738;2023-05-07T11:15:09;6.13;;;3.80;;
25249;SDS011;13201;51.148;13.738;2023-05-07T11:17:55;6.18;;;4.43;;
25249;SDS011;13201;51.148;13.738;2023-05-07T11:26:07;7.18;;;4.40;;
25249;SDS011;13201;51.148;13.738;2023-05-07T11:28:38;5.93;;;4.25;;
25249;SDS011;13201;51.148;13.738;2023-05-07T11:31:05;7.28;;;4.40;;
25249;SDS011;13201;51.148;13.738;2023-05-07T11:33:31;7.13;;;4.28;;
25249;SDS011;13201;51.148;13.738;2023-05-07T11:35:57;18.10;;;10.68;;
25249;SDS011;13201;51.148;13.738;2023-05-07T11:38:24;7.05;;;5.18;;
25249;SDS011;13201;51.148;13.738;2023-05-07T11:40:51;5.83;;;4.03;;
25249;SDS011;13201;51.148;13.738;2023-05-07T11:43:18;5.50;;;3.85;;
25249;SDS011;13201;51.148;13.738;2023-05-07T11:45:47;5.78;;;3.85;;
25249;SDS011;13201;51.148;13.738;2023-05-07T11:48:13;4.43;;;3.67;;
25249;SDS011;13201;51.148;13.738;2023-05-07T11:50:50;6.68;;;4.30;;
25249;SDS011;13201;51.148;13.738;2023-05-07T11:53:35;7.28;;;5.57;;
25249;SDS011;13201;51.148;13.738;2023-05-07T11:56:06;5.47;;;3.70;;
25249;SDS011;13201;51.148;13.738;2023-05-07T11:58:32;4.90;;;3.47;;
25249;SDS011;13201;51.148;13.738;2023-05-07T12:00:58;5.50;;;3.65;;
25249;SDS011;13201;51.148;13.738;2023-05-07T12:03:24;6.63;;;4.28;;
25249;SDS011;13201;51.148;13.738;2023-05-07T12:05:50;5.95;;;4.43;;
25249;SDS011;13201;51.148;13.738;2023-05-07T12:08:16;5.55;;;4.10;;
25249;SDS011;13201;51.148;13.738;2023-05-07T12:10:47;5.43;;;4.18;;
25249;SDS011;13201;51.148;13.738;2023-05-07T12:15:40;6.43;;;4.43;;
25249;SDS011;13201;51.148;13.738;2023-05-07T12:18:07;6.03;;;4.10;;
25249;SDS011;13201;51.148;13.738;2023-05-07T12:20:34;6.23;;;3.77;;
25249;SDS011;13201;51.148;13.738;2023-05-07T12:23:02;5.80;;;3.95;;
25249;SDS011;13201;51.148;13.738;2023-05-07T12:25:35;6.57;;;4.10;;
25249;SDS011;13201;51.148;13.738;2023-05-07T12:28:02;5.13;;;4.20;;
25249;SDS011;13201;51.148;13.738;2023-05-07T12:30:32;9.68;;;3.90;;
25249;SDS011;13201;51.148;13.738;2023-05-07T12:33:02;5.10;;;3.90;;
25249;SDS011;13201;51.148;13.738;2023-05-07T12:35:28;5.93;;;3.92;;
25249;SDS011;13201;51.148;13.738;2023-05-07T12:37:58;5.18;;;4.25;;
25249;SDS011;13201;51.148;13.738;2023-05-07T12:43:00;5.45;;;4.22;;
25249;SDS011;13201;51.148;13.738;2023-05-07T12:45:26;5.10;;;3.85;;
25249;SDS011;13201;51.148;13.738;2023-05-07T12:47:51;6.97;;;3.70;;
25249;SDS011;13201;51.148;13.738;2023-05-07T12:50:17;5.45;;;4.28;;
25249;SDS011;13201;51.148;13.738;2023-05-07T12:52:43;6.65;;;4.00;;
25249;SDS011;13201;51.148;13.738;2023-05-07T12:55:12;5.07;;;3.72;;
25249;SDS011;13201;51.148;13.738;2023-05-07T12:57:40;5.45;;;3.85;;
25249;SDS011;13201;51.148;13.738;2023-05-07T13:00:07;5.30;;;4.18;;
25249;SDS011;13201;51.148;13.738;2023-05-07T13:02:34;10.35;;;6.55;;
25249;SDS011;13201;51.148;13.738;2023-05-07T13:05:04;7.13;;;4.95;;
25249;SDS011;13201;51.148;13.738;2023-05-07T13:07:29;4.35;;;3.45;;
25249;SDS011;13201;51.148;13.738;2023-05-07T13:09:55;3.45;;;2.65;;
25249;SDS011;13201;51.148;13.738;2023-05-07T13:12:21;4.32;;;2.65;;
25249;SDS011;13201;51.148;13.738;2023-05-07T13:14:46;4.88;;;3.72;;
25249;SDS011;13201;51.148;13.738;2023-05-07T13:17:12;4.63;;;3.30;;
25249;SDS011;13201;51.148;13.738;2023-05-07T13:19:38;4.75;;;3.38;;
25249;SDS011;13201;51.148;13.738;2023-05-07T13:22:04;5.50;;;3.58;;
25249;SDS011;13201;51.148;13.738;2023-05-07T13:24:29;4.65;;;3.30;;
25249;SDS011;13201;51.148;13.738;2023-05-07T13:26:55;3.75;;;2.95;;
25249;SDS011;13201;51.148;13.738;2023-05-07T13:29:21;4.40;;;3.03;;
25249;SDS011;13201;51.148;13.738;2023-05-07T13:31:53;4.53;;;3.33;;
25249;SDS011;13201;51.148;13.738;2023-05-07T13:34:20;3.97;;;3.25;;
25249;SDS011;13201;51.148;13.738;2023-05-07T13:36:45;4.07;;;3.03;;
25249;SDS011;13201;51.148;13.738;2023-05-07T13:39:11;3.65;;;3.05;;
25249;SDS011;13201;51.148;13.738;2023-05-07T13:41:37;6.85;;;3.45;;
25249;SDS011;13201;51.148;13.738;2023-05-07T13:44:03;4.50;;;3.33;;
25249;SDS011;13201;51.148;13.738;2023-05-07T13:46:29;4.80;;;3.38;;
25249;SDS011;13201;51.148;13.738;2023-05-07T13:48:55;4.85;;;3.42;;
25249;SDS011;13201;51.148;13.738;2023-05-07T13:51:21;4.05;;;3.10;;
25249;SDS011;13201;51.148;13.738;2023-05-07T13:53:47;5.78;;;3.90;;
25249;SDS011;13201;51.148;13.738;2023-05-07T13:56:12;3.88;;;3.25;;
25249;SDS011;13201;51.148;13.738;2023-05-07T13:58:39;4.35;;;3.05;;
25249;SDS011;13201;51.148;13.738;2023-05-07T14:01:05;3.55;;;3.10;;
25249;SDS011;13201;51.148;13.738;2023-05-07T14:03:31;3.97;;;2.95;;
25249;SDS011;13201;51.148;13.738;2023-05-07T14:05:58;3.55;;;2.95;;
25249;SDS011;13201;51.148;13.738;2023-05-07T14:08:26;3.40;;;2.75;;
25249;SDS011;13201;51.148;13.738;2023-05-07T14:10:52;4.10;;;2.97;;
25249;SDS011;13201;51.148;13.738;2023-05-07T14:13:18;3.35;;;2.60;;
25249;SDS011;13201;51.148;13.738;2023-05-07T14:15:44;3.57;;;2.80;;
25249;SDS011;13201;51.148;13.738;2023-05-07T14:18:11;3.53;;;2.58;;
25249;SDS011;13201;51.148;13.738;2023-05-07T14:20:38;3.95;;;2.65;;
25249;SDS011;13201;51.148;13.738;2023-05-07T14:23:03;4.68;;;2.78;;
25249;SDS011;13201;51.148;13.738;2023-05-07T14:25:29;5.15;;;2.63;;
25249;SDS011;13201;51.148;13.738;2023-05-07T14:27:55;4.35;;;2.95;;
25249;SDS011;13201;51.148;13.738;2023-05-07T14:30:20;3.35;;;2.58;;
25249;SDS011;13201;51.148;13.738;2023-05-07T14:32:49;3.10;;;2.80;;
25249;SDS011;13201;51.148;13.738;2023-05-07T14:35:15;3.38;;;2.90;;
25249;SDS011;13201;51.148;13.738;2023-05-07T14:37:41;4.07;;;2.80;;
25249;SDS011;13201;51.148;13.738;2023-05-07T14:40:07;4.30;;;2.45;;
25249;SDS011;13201;51.148;13.738;2023-05-07T14:42:33;3.87;;;3.00;;
25249;SDS011;13201;51.148;13.738;2023-05-07T14:44:58;3.55;;;2.60;;
25249;SDS011;13201;51.148;13.738;2023-05-07T14:47:24;4.70;;;3.10;;
25249;SDS011;13201;51.148;13.738;2023-05-07T14:49:50;5.15;;;3.20;;
25249;SDS011;13201;51.148;13.738;2023-05-07T14:52:16;4.17;;;3.17;;
25249;SDS011;13201;51.148;13.738;2023-05-07T14:54:42;5.45;;;3.20;;
25249;SDS011;13201;51.148;13.738;2023-05-07T14:57:08;5.45;;;3.90;;
25249;SDS011;13201;51.148;13.738;2023-05-07T14:59:35;4.32;;;3.40;;
25249;SDS011;13201;51.148;13.738;2023-05-07T15:02:02;3.80;;;3.33;;
25249;SDS011;13201;51.148;13.738;2023-05-07T15:04:29;5.38;;;2.78;;
25249;SDS011;13201;51.148;13.738;2023-05-07T15:06:55;3.28;;;2.90;;
25249;SDS011;13201;51.148;13.738;2023-05-07T15:09:21;4.22;;;3.45;;
25249;SDS011;13201;51.148;13.738;2023-05-07T15:11:47;4.53;;;3.35;;
25249;SDS011;13201;51.148;13.738;2023-05-07T15:14:12;4.60;;;3.60;;
25249;SDS011;13201;51.148;13.738;2023-05-07T15:16:38;5.00;;;3.67;;
25249;SDS011;13201;51.148;13.738;2023-05-07T15:19:04;4.72;;;3.65;;
25249;SDS011;13201;51.148;13.738;2023-05-07T15:21:29;5.45;;;4.03;;
25249;SDS011;13201;51.148;13.738;2023-05-07T15:23:57;5.97;;;4.05;;
25249;SDS011;13201;51.148;13.738;2023-05-07T15:26:23;4.90;;;4.13;;
25249;SDS011;13201;51.148;13.738;2023-05-07T15:28:49;7.78;;;4.07;;
25249;SDS011;13201;51.148;13.738;2023-05-07T15:31:15;4.05;;;3.17;;
25249;SDS011;13201;51.148;13.738;2023-05-07T15:33:42;6.40;;;3.88;;
25249;SDS011;13201;51.148;13.738;2023-05-07T15:36:07;5.22;;;4.00;;
25249;SDS011;13201;51.148;13.738;2023-05-07T15:38:33;7.13;;;3.85;;